createdAt,value
2022-12-06T00:00:43.071Z,33.55
2022-12-06T00:01:46.703Z,29.33
2022-12-06T00:02:49.460Z,31.55
2022-12-06T00:03:54.972Z,32.33
2022-12-06T00:04:57.750Z,28.02
2022-12-06T00:06:05.103Z,27.38
2022-12-06T00:07:08.029Z,29.80
2022-12-06T00:08:10.910Z,28.38
2022-12-06T00:09:19.774Z,31.77
2022-12-06T00:10:22.666Z,28.00
2022-12-06T00:11:31.027Z,32.05
2022-12-06T00:12:33.719Z,30.83
2022-12-06T00:13:36.806Z,32.90
2022-12-06T00:14:39.440Z,29.30
2022-12-06T00:15:42.170Z,31.33
2022-12-06T00:16:45.474Z,34.88
2022-12-06T00:17:48.206Z,38.20
2022-12-06T00:18:50.929Z,28.00
2022-12-06T00:19:53.585Z,27.13
2022-12-06T00:20:56.357Z,34.05
2022-12-06T00:21:58.948Z,26.77
2022-12-06T00:23:01.665Z,30.05
2022-12-06T00:24:15.467Z,33.45
2022-12-06T00:25:18.139Z,34.53
2022-12-06T00:26:21.767Z,27.00
2022-12-06T00:27:24.511Z,31.73
2022-12-06T00:28:27.468Z,29.35
2022-12-06T00:29:30.188Z,28.92
2022-12-06T00:30:32.869Z,30.83
2022-12-06T00:31:35.768Z,25.00
2022-12-06T00:32:38.697Z,29.65
2022-12-06T00:33:41.355Z,32.22
2022-12-06T00:34:44.226Z,34.55
2022-12-06T00:35:55.913Z,31.45
2022-12-06T00:36:58.714Z,27.80
2022-12-06T00:38:01.585Z,29.58
2022-12-06T00:39:06.729Z,31.40
2022-12-06T00:40:09.777Z,29.63
2022-12-06T00:41:20.744Z,33.30
2022-12-06T00:42:23.387Z,29.00
2022-12-06T00:43:26.989Z,35.35
2022-12-06T00:44:29.837Z,34.55
2022-12-06T00:45:32.501Z,28.92
2022-12-06T00:46:36.211Z,32.72
2022-12-06T00:47:38.988Z,30.98
2022-12-06T00:48:41.741Z,28.73
2022-12-06T00:49:44.472Z,28.10
2022-12-06T00:50:47.121Z,35.53
2022-12-06T00:51:49.877Z,29.40
2022-12-06T00:52:52.504Z,33.85
2022-12-06T00:53:55.643Z,34.85
2022-12-06T00:54:58.277Z,29.58
2022-12-06T00:56:00.994Z,28.05
2022-12-06T00:57:03.729Z,30.92
2022-12-06T00:58:06.396Z,29.65
2022-12-06T00:59:10.274Z,29.63
2022-12-06T01:00:13.658Z,31.00
2022-12-06T01:01:23.120Z,32.83
2022-12-06T01:02:25.943Z,27.05
2022-12-06T01:03:34.853Z,28.33
2022-12-06T01:04:37.854Z,28.88
2022-12-06T01:05:42.579Z,30.33
2022-12-06T01:06:45.272Z,32.83
2022-12-06T01:07:48.039Z,37.28
2022-12-06T01:08:51.008Z,29.70
2022-12-06T01:09:53.696Z,32.85
2022-12-06T01:10:56.515Z,31.67
2022-12-06T01:11:59.229Z,33.13
2022-12-06T01:13:01.986Z,28.77
2022-12-06T01:14:04.969Z,30.52
2022-12-06T01:15:08.224Z,29.08
2022-12-06T01:16:15.329Z,37.50
2022-12-06T01:17:17.992Z,30.23
2022-12-06T01:18:21.776Z,27.13
2022-12-06T01:19:24.932Z,31.42
2022-12-06T01:20:27.671Z,33.05
2022-12-06T01:21:30.539Z,28.55
2022-12-06T01:22:33.459Z,32.55
2022-12-06T01:23:36.717Z,29.80
2022-12-06T01:24:39.414Z,35.38
2022-12-06T01:25:52.246Z,27.88
2022-12-06T01:26:54.884Z,32.08
2022-12-06T01:27:57.519Z,28.77
2022-12-06T01:29:01.053Z,29.92
2022-12-06T01:30:05.255Z,31.60
2022-12-06T01:31:08.260Z,29.77
2022-12-06T01:32:11.073Z,33.08
2022-12-06T01:33:13.798Z,31.00
2022-12-06T01:34:17.579Z,28.08
2022-12-06T01:35:20.241Z,30.58
2022-12-06T01:36:25.489Z,34.80
2022-12-06T01:37:28.082Z,28.42
2022-12-06T01:38:30.838Z,30.83
2022-12-06T01:39:33.469Z,31.67
2022-12-06T01:40:45.640Z,31.25
2022-12-06T01:41:48.791Z,33.08
2022-12-06T01:42:51.526Z,31.90
2022-12-06T01:43:54.994Z,27.92
2022-12-06T01:45:01.957Z,32.63
2022-12-06T01:46:29.633Z,30.55
2022-12-06T01:47:40.300Z,31.40
2022-12-06T01:48:43.152Z,29.50
2022-12-06T01:49:59.259Z,32.35
2022-12-06T01:51:02.518Z,38.63
2022-12-06T01:52:11.397Z,30.65
2022-12-06T01:53:14.221Z,33.10
2022-12-06T01:54:17.577Z,25.85
2022-12-06T01:55:27.260Z,33.83
2022-12-06T01:56:29.944Z,32.70
2022-12-06T01:57:32.701Z,31.77
2022-12-06T01:58:38.399Z,31.23
2022-12-06T01:59:41.431Z,34.42
2022-12-06T02:00:44.507Z,30.90
2022-12-06T02:01:47.534Z,33.08
2022-12-06T02:02:50.396Z,31.45
2022-12-06T02:03:55.443Z,33.30
2022-12-06T02:04:59.474Z,34.70
2022-12-06T02:06:07.411Z,31.50
2022-12-06T02:07:11.180Z,39.30
2022-12-06T02:08:14.079Z,29.50
2022-12-06T02:09:17.633Z,30.85
2022-12-06T02:10:20.423Z,29.23
2022-12-06T02:11:23.138Z,31.40
2022-12-06T02:12:25.929Z,29.95
2022-12-06T02:13:28.984Z,32.50
2022-12-06T02:14:33.738Z,29.88
2022-12-06T02:15:55.158Z,34.20
2022-12-06T02:17:24.225Z,33.25
2022-12-06T02:18:46.350Z,30.27
2022-12-06T02:20:00.564Z,33.75
2022-12-06T02:21:32.341Z,30.38
2022-12-06T02:22:55.881Z,39.28
2022-12-06T02:24:14.463Z,30.92
2022-12-06T02:25:27.955Z,31.73
2022-12-06T02:26:52.972Z,37.60
2022-12-06T02:28:04.632Z,35.50
2022-12-06T02:29:38.044Z,29.48
2022-12-06T02:31:09.072Z,29.92
2022-12-06T02:32:21.482Z,32.08
2022-12-06T02:33:49.407Z,31.15
2022-12-06T02:35:08.537Z,34.17
2022-12-06T02:36:20.693Z,35.55
2022-12-06T02:37:42.373Z,33.65
2022-12-06T02:38:48.246Z,28.38
2022-12-06T02:40:06.915Z,31.67
2022-12-06T02:41:19.565Z,37.45
2022-12-06T02:42:50.676Z,36.53
2022-12-06T02:45:02.419Z,34.83
2022-12-06T02:46:06.325Z,31.10
2022-12-06T02:47:11.908Z,34.55
2022-12-06T02:48:15.311Z,28.67
2022-12-06T02:49:18.670Z,30.70
2022-12-06T02:50:27.215Z,32.85
2022-12-06T02:51:31.827Z,31.35
2022-12-06T02:52:37.218Z,34.47
2022-12-06T02:53:43.083Z,33.63
2022-12-06T02:54:47.103Z,39.67
2022-12-06T02:55:50.543Z,28.55
2022-12-06T02:56:53.221Z,32.03
2022-12-06T02:57:57.475Z,34.20
2022-12-06T02:59:00.618Z,32.63
2022-12-06T03:00:35.324Z,31.92
2022-12-06T03:01:43.530Z,32.55
2022-12-06T03:02:46.814Z,32.58
2022-12-06T03:04:19.116Z,36.42
2022-12-06T03:05:26.475Z,35.58
2022-12-06T03:06:47.294Z,39.40
2022-12-06T03:07:50.745Z,31.92
2022-12-06T03:08:59.473Z,36.53
2022-12-06T03:10:20.940Z,37.05
2022-12-06T03:11:27.011Z,30.00
2022-12-06T03:12:30.115Z,30.95
2022-12-06T03:13:47.849Z,34.55
2022-12-06T03:15:09.366Z,34.83
2022-12-06T03:16:28.459Z,31.98
2022-12-06T03:17:50.907Z,33.42
2022-12-06T03:19:21.058Z,31.20
2022-12-06T03:20:31.865Z,33.97
2022-12-06T03:22:49.102Z,35.88
2022-12-06T03:23:51.995Z,32.08
2022-12-06T03:24:55.052Z,32.60
2022-12-06T03:26:00.114Z,32.70
2022-12-06T03:27:06.636Z,30.75
2022-12-06T03:28:11.801Z,28.77
2022-12-06T03:29:16.765Z,30.42
2022-12-06T03:30:19.692Z,33.83
2022-12-06T03:31:23.799Z,36.45
2022-12-06T03:32:29.954Z,33.35
2022-12-06T03:33:33.994Z,33.22
2022-12-06T03:34:39.462Z,32.45
2022-12-06T03:35:43.084Z,27.48
2022-12-06T03:36:47.762Z,32.17
2022-12-06T03:37:55.061Z,32.30
2022-12-06T03:39:04.071Z,35.83
2022-12-06T03:40:09.626Z,40.88
2022-12-06T03:41:13.214Z,35.65
2022-12-06T03:42:16.724Z,35.00
2022-12-06T03:43:19.929Z,35.85
2022-12-06T03:44:23.647Z,32.28
2022-12-06T03:45:50.040Z,37.00
2022-12-06T03:46:57.718Z,33.78
2022-12-06T03:48:13.135Z,38.20
2022-12-06T03:49:24.304Z,32.05
2022-12-06T03:50:35.437Z,35.42
2022-12-06T03:51:39.357Z,35.40
2022-12-06T03:52:42.024Z,36.72
2022-12-06T03:53:50.144Z,37.45
2022-12-06T03:54:52.803Z,31.05
2022-12-06T03:55:55.683Z,30.42
2022-12-06T03:56:58.490Z,33.83
2022-12-06T03:58:01.149Z,33.30
2022-12-06T03:59:08.371Z,36.72
2022-12-06T04:00:11.887Z,34.22
2022-12-06T04:01:14.802Z,34.15
2022-12-06T04:02:17.749Z,31.52
2022-12-06T04:03:20.521Z,28.35
2022-12-06T04:04:24.844Z,33.00
2022-12-06T04:05:27.486Z,41.20
2022-12-06T04:06:30.354Z,35.50
2022-12-06T04:07:33.076Z,30.88
2022-12-06T04:08:36.227Z,33.40
2022-12-06T04:09:56.575Z,35.75
2022-12-06T04:10:59.458Z,34.78
2022-12-06T04:12:02.085Z,31.60
2022-12-06T04:13:06.256Z,36.97
2022-12-06T04:14:08.984Z,34.10
2022-12-06T04:15:11.591Z,33.90
2022-12-06T04:16:32.945Z,37.83
2022-12-06T04:17:57.266Z,30.50
2022-12-06T04:19:00.068Z,30.75
2022-12-06T04:20:02.996Z,41.13
2022-12-06T04:21:38.009Z,38.92
2022-12-06T04:22:59.366Z,40.42
2022-12-06T04:24:03.129Z,32.63
2022-12-06T04:25:06.211Z,36.42
2022-12-06T04:26:11.925Z,36.78
2022-12-06T04:27:33.242Z,34.97
2022-12-06T04:28:54.486Z,36.85
2022-12-06T04:30:15.796Z,36.78
2022-12-06T04:31:37.912Z,36.67
2022-12-06T04:32:59.410Z,31.23
2022-12-06T04:34:20.405Z,39.83
2022-12-06T04:35:41.841Z,38.25
2022-12-06T04:37:03.418Z,35.75
2022-12-06T04:38:25.004Z,36.65
2022-12-06T04:39:27.781Z,39.80
2022-12-06T04:40:30.550Z,36.95
2022-12-06T04:41:51.655Z,41.60
2022-12-06T04:43:12.800Z,33.28
2022-12-06T04:44:15.536Z,40.30
2022-12-06T04:45:18.221Z,31.48
2022-12-06T04:46:20.986Z,30.80
2022-12-06T04:47:23.807Z,39.53
2022-12-06T04:48:26.556Z,38.20
2022-12-06T04:49:29.338Z,36.13
2022-12-06T04:50:32.009Z,40.53
2022-12-06T04:51:35.149Z,38.95
2022-12-06T04:52:38.048Z,39.45
2022-12-06T04:53:40.885Z,33.25
2022-12-06T04:54:43.564Z,33.72
2022-12-06T04:55:47.219Z,36.67
2022-12-06T04:56:49.903Z,32.47
2022-12-06T04:57:52.525Z,39.67
2022-12-06T04:58:55.222Z,42.05
2022-12-06T04:59:58.214Z,40.45
2022-12-06T05:01:01.329Z,33.85
2022-12-06T05:02:04.210Z,36.15
2022-12-06T05:03:07.077Z,37.53
2022-12-06T05:04:09.903Z,40.67
2022-12-06T05:05:12.929Z,35.70
2022-12-06T05:06:15.787Z,37.55
2022-12-06T05:07:18.473Z,36.05
2022-12-06T05:08:21.363Z,34.92
2022-12-06T05:09:24.027Z,38.13
2022-12-06T05:10:26.933Z,32.92
2022-12-06T05:11:29.985Z,35.13
2022-12-06T05:12:32.716Z,35.92
2022-12-06T05:13:36.092Z,35.38
2022-12-06T05:14:38.756Z,33.10
2022-12-06T05:15:49.057Z,36.97
2022-12-06T05:16:51.945Z,33.15
2022-12-06T05:17:54.760Z,33.75
2022-12-06T05:18:57.459Z,32.63
2022-12-06T05:20:00.613Z,35.75
2022-12-06T05:21:07.818Z,37.90
2022-12-06T05:22:10.563Z,39.35
2022-12-06T05:23:13.398Z,39.40
2022-12-06T05:24:16.275Z,33.53
2022-12-06T05:25:18.990Z,34.40
2022-12-06T05:26:24.270Z,34.40
2022-12-06T05:27:29.569Z,37.88
2022-12-06T05:28:35.671Z,41.50
2022-12-06T05:29:38.450Z,37.83
2022-12-06T05:30:41.186Z,36.88
2022-12-06T05:31:43.912Z,34.05
2022-12-06T05:32:46.675Z,40.72
2022-12-06T05:33:50.050Z,37.90
2022-12-06T05:34:52.825Z,37.70
2022-12-06T05:35:55.722Z,35.75
2022-12-06T05:36:58.408Z,39.30
2022-12-06T05:38:01.125Z,40.13
2022-12-06T05:39:04.481Z,36.95
2022-12-06T05:40:07.754Z,44.92
2022-12-06T05:41:10.520Z,39.88
2022-12-06T05:42:20.400Z,42.38
2022-12-06T05:43:24.998Z,37.00
2022-12-06T05:44:27.788Z,41.20
2022-12-06T05:45:30.659Z,41.05
2022-12-06T05:46:33.320Z,40.15
2022-12-06T05:47:36.036Z,40.53
2022-12-06T05:48:38.890Z,37.08
2022-12-06T05:49:41.714Z,35.08
2022-12-06T05:50:46.785Z,36.90
2022-12-06T05:51:49.474Z,37.05
2022-12-06T05:52:55.921Z,37.42
2022-12-06T05:53:58.631Z,36.90
2022-12-06T05:55:01.361Z,29.25
2022-12-06T05:56:11.964Z,39.97
2022-12-06T05:57:14.615Z,33.38
2022-12-06T05:58:19.116Z,39.53
2022-12-06T05:59:21.903Z,36.38
2022-12-06T06:00:24.977Z,34.97
2022-12-06T06:01:27.637Z,34.88
2022-12-06T06:02:30.353Z,38.17
2022-12-06T06:03:33.956Z,38.35
2022-12-06T06:04:36.782Z,32.55
2022-12-06T06:05:48.637Z,36.10
2022-12-06T06:06:51.566Z,35.53
2022-12-06T06:07:55.223Z,34.40
2022-12-06T06:08:58.007Z,34.85
2022-12-06T06:10:00.823Z,34.00
2022-12-06T06:11:03.741Z,32.03
2022-12-06T06:12:12.109Z,31.98
2022-12-06T06:13:15.302Z,32.67
2022-12-06T06:14:17.969Z,39.75
2022-12-06T06:15:20.630Z,38.50
2022-12-06T06:16:23.301Z,40.08
2022-12-06T06:17:26.387Z,40.33
2022-12-06T06:18:28.995Z,36.13
2022-12-06T06:19:31.655Z,47.78
2022-12-06T06:20:34.532Z,37.00
2022-12-06T06:21:37.281Z,34.55
2022-12-06T06:22:42.492Z,39.03
2022-12-06T06:23:45.108Z,34.92
2022-12-06T06:24:47.778Z,37.00
2022-12-06T06:25:50.514Z,32.17
2022-12-06T06:26:53.173Z,40.70
2022-12-06T06:27:55.883Z,36.83
2022-12-06T06:28:58.753Z,39.95
2022-12-06T06:30:01.620Z,40.17
2022-12-06T06:31:06.097Z,38.63
2022-12-06T06:32:08.901Z,32.78
2022-12-06T06:33:11.761Z,41.28
2022-12-06T06:34:14.619Z,37.92
2022-12-06T06:35:17.454Z,32.33
2022-12-06T06:36:20.199Z,37.70
2022-12-06T06:37:22.906Z,34.95
2022-12-06T06:38:26.071Z,40.75
2022-12-06T06:39:28.672Z,34.00
2022-12-06T06:40:31.869Z,38.55
2022-12-06T06:41:34.551Z,38.35
2022-12-06T06:42:37.478Z,42.58
2022-12-06T06:43:40.686Z,39.28
2022-12-06T06:44:43.882Z,35.95
2022-12-06T06:45:54.731Z,36.53
2022-12-06T06:46:57.445Z,33.00
2022-12-06T06:48:00.072Z,36.67
2022-12-06T06:49:03.076Z,37.03
2022-12-06T06:50:07.052Z,36.92
2022-12-06T06:51:11.928Z,35.40
2022-12-06T06:52:14.968Z,37.33
2022-12-06T06:53:18.028Z,37.53
2022-12-06T06:54:20.811Z,35.42
2022-12-06T06:55:23.654Z,43.47
2022-12-06T06:56:26.590Z,34.20
2022-12-06T06:57:29.277Z,39.63
2022-12-06T06:58:32.096Z,39.50
2022-12-06T06:59:34.876Z,36.38
2022-12-06T07:00:37.541Z,41.45
2022-12-06T07:01:40.461Z,35.60
2022-12-06T07:02:43.161Z,38.28
2022-12-06T07:03:46.104Z,41.30
2022-12-06T07:04:49.949Z,42.33
2022-12-06T07:05:55.950Z,36.28
2022-12-06T07:06:58.598Z,40.72
2022-12-06T07:08:01.400Z,42.35
2022-12-06T07:09:04.374Z,35.38
2022-12-06T07:10:07.766Z,35.75
2022-12-06T07:11:12.182Z,31.80
2022-12-06T07:12:15.530Z,32.25
2022-12-06T07:13:19.018Z,38.50
2022-12-06T07:14:21.712Z,38.17
2022-12-06T07:15:24.316Z,34.45
2022-12-06T07:16:27.356Z,37.85
2022-12-06T07:17:30.202Z,31.88
2022-12-06T07:18:33.256Z,39.10
2022-12-06T07:19:35.953Z,33.20
2022-12-06T07:20:38.567Z,33.53
2022-12-06T07:21:41.233Z,37.97
2022-12-06T07:22:44.022Z,36.38
2022-12-06T07:23:46.813Z,33.60
2022-12-06T07:24:52.490Z,34.58
2022-12-06T07:26:04.673Z,33.47
2022-12-06T07:27:07.301Z,32.30
2022-12-06T07:28:09.977Z,30.77
2022-12-06T07:29:12.754Z,36.40
2022-12-06T07:30:17.109Z,35.38
2022-12-06T07:31:22.846Z,30.80
2022-12-06T07:32:25.738Z,32.47
2022-12-06T07:33:28.364Z,33.30
2022-12-06T07:34:31.177Z,33.67
2022-12-06T07:36:03.528Z,34.33
2022-12-06T07:36:56.955Z,34.45
2022-12-06T07:37:59.602Z,35.67
2022-12-06T07:39:02.306Z,33.55
2022-12-06T07:40:05.998Z,34.13
2022-12-06T07:41:31.701Z,34.20
2022-12-06T07:42:53.388Z,31.58
2022-12-06T07:44:15.616Z,32.35
2022-12-06T07:45:18.418Z,35.83
2022-12-06T07:46:21.118Z,33.30
2022-12-06T07:47:23.993Z,35.78
2022-12-06T07:48:26.746Z,37.28
2022-12-06T07:49:29.699Z,32.65
2022-12-06T07:50:33.172Z,35.42
2022-12-06T07:51:35.908Z,30.60
2022-12-06T07:52:39.704Z,35.45
2022-12-06T07:53:42.999Z,35.30
2022-12-06T07:54:45.750Z,29.33
2022-12-06T07:55:48.479Z,29.52
2022-12-06T07:56:51.528Z,29.73
2022-12-06T07:57:54.326Z,31.65
2022-12-06T07:58:56.963Z,29.08
2022-12-06T08:00:00.109Z,32.95
2022-12-06T08:01:04.595Z,33.08
2022-12-06T08:02:18.510Z,30.95
2022-12-06T08:03:21.295Z,36.30
2022-12-06T08:04:24.317Z,29.92
2022-12-06T08:05:27.498Z,31.90
2022-12-06T08:06:31.043Z,34.03
2022-12-06T08:07:33.749Z,34.03
2022-12-06T08:08:37.049Z,34.88
2022-12-06T08:09:40.545Z,32.90
2022-12-06T08:10:43.235Z,34.33
2022-12-06T08:11:46.034Z,34.25
2022-12-06T08:12:48.669Z,33.38
2022-12-06T08:13:51.564Z,32.45
2022-12-06T08:14:59.366Z,31.95
2022-12-06T08:16:10.651Z,39.92
2022-12-06T08:17:13.389Z,38.28
2022-12-06T08:18:16.068Z,34.47
2022-12-06T08:19:19.120Z,40.22
2022-12-06T08:20:21.701Z,38.58
2022-12-06T08:21:26.295Z,40.78
2022-12-06T08:22:29.055Z,42.78
2022-12-06T08:23:34.415Z,38.17
2022-12-06T08:24:37.419Z,37.78
2022-12-06T08:25:40.163Z,39.90
2022-12-06T08:26:42.870Z,36.67
2022-12-06T08:27:45.530Z,39.22
2022-12-06T08:28:48.304Z,43.72
2022-12-06T08:29:51.140Z,38.95
2022-12-06T08:30:55.988Z,35.28
2022-12-06T08:32:02.435Z,38.97
2022-12-06T08:33:05.218Z,50.88
2022-12-06T08:34:08.192Z,37.63
2022-12-06T08:35:10.905Z,41.58
2022-12-06T08:36:16.398Z,40.00
2022-12-06T08:37:19.259Z,39.10
2022-12-06T08:38:21.934Z,34.90
2022-12-06T08:39:25.814Z,36.35
2022-12-06T08:40:28.523Z,35.15
2022-12-06T08:41:49.764Z,38.45
2022-12-06T08:42:52.638Z,37.92
2022-12-06T08:43:56.274Z,39.75
2022-12-06T08:44:58.907Z,39.45
2022-12-06T08:46:01.645Z,31.60
2022-12-06T08:47:04.641Z,29.90
2022-12-06T08:48:07.419Z,34.28
2022-12-06T08:49:11.483Z,34.53
2022-12-06T08:50:14.098Z,31.70
2022-12-06T08:51:17.109Z,30.75
2022-12-06T08:52:19.867Z,35.22
2022-12-06T08:53:22.467Z,33.67
2022-12-06T08:54:26.643Z,29.98
2022-12-06T08:55:29.349Z,29.67
2022-12-06T08:56:32.205Z,30.70
2022-12-06T08:57:35.119Z,30.33
2022-12-06T08:58:37.863Z,26.65
2022-12-06T08:59:40.626Z,24.65
2022-12-06T09:00:43.266Z,28.60
2022-12-06T09:01:46.687Z,25.67
2022-12-06T09:02:49.574Z,29.48
2022-12-06T09:03:52.564Z,29.50
2022-12-06T09:04:55.504Z,27.92
2022-12-06T09:06:02.534Z,28.85
2022-12-06T09:07:10.060Z,32.42
2022-12-06T09:08:14.406Z,27.23
2022-12-06T09:09:18.538Z,28.10
2022-12-06T09:10:21.178Z,32.45
2022-12-06T09:11:24.781Z,29.92
2022-12-06T09:12:27.754Z,26.77
2022-12-06T09:13:30.696Z,29.20
2022-12-06T09:14:33.419Z,28.23
2022-12-06T09:15:37.633Z,30.83
2022-12-06T09:16:43.427Z,26.88
2022-12-06T09:17:46.211Z,33.25
2022-12-06T09:18:49.622Z,28.75
2022-12-06T09:19:52.417Z,32.60
2022-12-06T09:20:55.746Z,30.13
2022-12-06T09:21:58.422Z,24.00
2022-12-06T09:23:01.103Z,28.92
2022-12-06T09:24:04.070Z,26.20
2022-12-06T09:25:07.151Z,31.75
2022-12-06T09:26:10.055Z,29.85
2022-12-06T09:27:12.786Z,27.58
2022-12-06T09:28:16.022Z,26.70
2022-12-06T09:29:19.435Z,29.25
2022-12-06T09:30:22.094Z,28.73
2022-12-06T09:31:25.904Z,27.33
2022-12-06T09:32:28.651Z,23.80
2022-12-06T09:33:31.482Z,27.45
2022-12-06T09:34:34.139Z,27.20
2022-12-06T09:35:37.118Z,26.45
2022-12-06T09:36:53.501Z,26.77
2022-12-06T09:37:56.390Z,26.85
2022-12-06T09:39:09.627Z,26.85
2022-12-06T09:40:20.622Z,27.48
2022-12-06T09:41:57.279Z,24.30
2022-12-06T09:43:26.478Z,28.75
2022-12-06T09:44:53.306Z,27.83
2022-12-06T09:46:13.967Z,26.95
2022-12-06T09:47:19.781Z,30.80
2022-12-06T09:48:49.063Z,29.92
2022-12-06T09:50:18.387Z,23.45
2022-12-06T09:51:56.738Z,30.02
2022-12-06T09:53:20.467Z,25.95
2022-12-06T09:54:49.024Z,25.50
2022-12-06T09:56:00.015Z,29.80
2022-12-06T09:57:16.850Z,29.45
2022-12-06T09:58:25.785Z,28.50
2022-12-06T09:59:56.149Z,24.63
2022-12-06T10:01:25.059Z,26.58
2022-12-06T10:02:38.563Z,25.38
2022-12-06T10:04:04.183Z,24.40
2022-12-06T10:05:20.356Z,29.08
2022-12-06T10:06:24.114Z,22.98
2022-12-06T10:08:01.291Z,34.30
2022-12-06T10:09:31.943Z,29.95
2022-12-06T10:11:08.328Z,24.35
2022-12-06T10:12:34.779Z,26.27
2022-12-06T10:13:47.474Z,26.95
2022-12-06T10:15:18.927Z,24.85
2022-12-06T10:16:27.607Z,24.40
2022-12-06T10:17:54.524Z,25.60
2022-12-06T10:19:00.165Z,27.13
2022-12-06T10:20:14.024Z,25.55
2022-12-06T10:21:35.601Z,24.30
2022-12-06T10:23:05.896Z,29.67
2022-12-06T10:24:42.448Z,29.30
2022-12-06T10:25:56.761Z,25.30
2022-12-06T10:27:11.802Z,26.27
2022-12-06T10:28:23.868Z,26.98
2022-12-06T10:29:44.671Z,27.02
2022-12-06T10:30:52.776Z,24.27
2022-12-06T10:31:59.696Z,26.27
2022-12-06T10:33:10.270Z,29.45
2022-12-06T10:34:26.470Z,31.75
2022-12-06T10:35:43.728Z,26.40
2022-12-06T10:37:16.610Z,29.20
2022-12-06T10:38:28.276Z,26.08
2022-12-06T10:39:52.242Z,27.58
2022-12-06T10:41:05.844Z,23.77
2022-12-06T10:42:31.875Z,29.02
2022-12-06T10:43:49.586Z,27.95
2022-12-06T10:45:30.904Z,26.13
2022-12-06T10:47:03.470Z,24.15
2022-12-06T10:48:16.206Z,26.38
2022-12-06T10:49:24.001Z,27.55
2022-12-06T10:50:31.009Z,30.60
2022-12-06T10:51:48.986Z,27.48
2022-12-06T10:53:11.304Z,30.90
2022-12-06T10:54:22.617Z,21.90
2022-12-06T10:55:31.823Z,26.05
2022-12-06T10:56:37.143Z,27.17
2022-12-06T10:57:59.347Z,33.90
2022-12-06T10:59:26.206Z,28.48
2022-12-06T11:00:31.596Z,30.98
2022-12-06T11:01:39.437Z,33.30
2022-12-06T11:03:17.902Z,28.85
2022-12-06T11:04:29.180Z,26.90
2022-12-06T11:05:52.584Z,27.92
2022-12-06T11:07:15.911Z,28.40
2022-12-06T11:08:24.770Z,28.13
2022-12-06T11:09:45.232Z,27.55
2022-12-06T11:10:48.274Z,28.13
2022-12-06T11:11:51.219Z,24.38
2022-12-06T11:13:18.267Z,32.15
2022-12-06T11:14:41.741Z,25.92
2022-12-06T11:15:54.048Z,31.85
2022-12-06T11:17:05.247Z,28.10
2022-12-06T11:18:14.392Z,31.92
2022-12-06T11:19:36.668Z,28.75
2022-12-06T11:21:27.173Z,27.35
2022-12-06T11:22:45.067Z,31.53
2022-12-06T11:23:53.928Z,28.60
2022-12-06T11:25:06.781Z,26.33
2022-12-06T11:26:28.195Z,29.17
2022-12-06T11:27:34.821Z,26.67
2022-12-06T11:28:41.921Z,25.90
2022-12-06T11:29:45.661Z,25.23
2022-12-06T11:30:53.315Z,27.17
2022-12-06T11:32:04.361Z,27.60
2022-12-06T11:33:07.278Z,30.63
2022-12-06T11:34:24.181Z,30.60
2022-12-06T11:35:27.919Z,25.38
2022-12-06T11:36:31.599Z,28.83
2022-12-06T11:37:36.097Z,26.98
2022-12-06T11:38:42.898Z,27.23
2022-12-06T11:39:47.044Z,29.75
2022-12-06T11:40:51.844Z,30.67
2022-12-06T11:41:56.401Z,30.05
2022-12-06T11:43:01.201Z,31.02
2022-12-06T11:44:03.961Z,31.73
2022-12-06T11:45:21.689Z,28.77
2022-12-06T11:46:25.137Z,26.95
2022-12-06T11:47:28.147Z,38.95
2022-12-06T11:48:34.133Z,31.38
2022-12-06T11:49:41.857Z,28.27
2022-12-06T11:50:46.722Z,26.63
2022-12-06T11:51:49.674Z,27.10
2022-12-06T11:53:17.119Z,27.48
2022-12-06T11:54:24.854Z,29.63
2022-12-06T11:55:30.406Z,26.65
2022-12-06T11:56:35.625Z,27.75
2022-12-06T11:57:56.275Z,27.08
2022-12-06T11:59:17.281Z,27.35
2022-12-06T12:01:50.346Z,26.17
2022-12-06T12:02:55.160Z,28.50
2022-12-06T12:03:57.816Z,31.88
2022-12-06T12:05:30.927Z,31.92
2022-12-06T12:06:33.637Z,33.53
2022-12-06T12:07:38.986Z,34.60
2022-12-06T12:08:58.336Z,31.25
2022-12-06T12:10:03.617Z,28.00
2022-12-06T12:11:06.821Z,30.40
2022-12-06T12:12:16.338Z,33.80
2022-12-06T12:13:41.256Z,30.27
2022-12-06T12:14:50.870Z,27.05
2022-12-06T12:15:54.288Z,29.23
2022-12-06T12:17:00.289Z,35.20
2022-12-06T12:18:05.962Z,31.85
2022-12-06T12:19:36.494Z,31.55
2022-12-06T12:20:40.318Z,29.75
2022-12-06T12:21:43.223Z,32.42
2022-12-06T12:22:46.428Z,33.75
2022-12-06T12:23:49.094Z,32.70
2022-12-06T12:26:21.651Z,29.23
2022-12-06T12:27:38.636Z,27.83
2022-12-06T12:28:46.206Z,32.85
2022-12-06T12:30:03.554Z,32.03
2022-12-06T12:31:26.586Z,32.08
2022-12-06T12:32:29.357Z,34.40
2022-12-06T12:33:32.229Z,32.33
2022-12-06T12:34:38.855Z,42.35
2022-12-06T12:36:17.732Z,37.45
2022-12-06T12:37:21.554Z,37.15
2022-12-06T12:38:32.901Z,42.70
2022-12-06T12:39:40.773Z,36.55
2022-12-06T12:41:12.576Z,37.33
2022-12-06T12:42:28.079Z,39.47
2022-12-06T12:43:32.830Z,37.83
2022-12-06T12:44:38.972Z,41.60
2022-12-06T12:46:03.462Z,43.47
2022-12-06T12:47:18.893Z,34.47
2022-12-06T12:48:26.558Z,43.67
2022-12-06T12:49:35.223Z,33.50
2022-12-06T12:50:38.046Z,45.20
2022-12-06T12:51:46.455Z,40.60
2022-12-06T12:52:52.544Z,37.83
2022-12-06T12:54:01.321Z,45.22
2022-12-06T12:55:16.016Z,40.85
2022-12-06T12:56:20.736Z,38.15
2022-12-06T12:57:23.544Z,43.75
2022-12-06T12:58:27.261Z,48.08
2022-12-06T12:59:37.816Z,43.28
2022-12-06T13:00:43.115Z,37.90
2022-12-06T13:01:56.540Z,38.90
2022-12-06T13:03:14.175Z,43.13
2022-12-06T13:04:44.331Z,45.60
2022-12-06T13:05:49.439Z,45.20
2022-12-06T13:07:25.842Z,37.58
2022-12-06T13:08:35.058Z,40.38
2022-12-06T13:10:04.704Z,43.75
2022-12-06T13:11:08.840Z,41.03
2022-12-06T13:12:33.617Z,41.70
2022-12-06T13:13:41.225Z,43.83
2022-12-06T13:14:52.883Z,43.58
2022-12-06T13:15:57.278Z,37.50
2022-12-06T13:17:04.437Z,38.05
2022-12-06T13:18:18.229Z,40.22
2022-12-06T13:19:24.854Z,50.35
2022-12-06T13:20:29.328Z,41.78
2022-12-06T13:21:41.404Z,46.03
2022-12-06T13:22:45.650Z,40.35
2022-12-06T13:23:51.177Z,43.00
2022-12-06T13:25:00.127Z,48.13
2022-12-06T13:26:27.443Z,47.08
2022-12-06T13:27:34.819Z,41.13
2022-12-06T13:28:42.958Z,51.20
2022-12-06T13:30:05.876Z,48.75
2022-12-06T13:31:14.824Z,50.83
2022-12-06T13:32:26.958Z,52.63
2022-12-06T13:33:32.439Z,50.42
2022-12-06T13:34:39.530Z,43.70
2022-12-06T13:35:58.632Z,43.83
2022-12-06T13:37:01.764Z,49.35
2022-12-06T13:38:26.926Z,43.00
2022-12-06T13:39:38.176Z,50.58
2022-12-06T13:40:53.889Z,48.65
2022-12-06T13:42:19.791Z,47.53
2022-12-06T13:43:25.470Z,44.85
2022-12-06T13:44:41.854Z,41.38
2022-12-06T13:45:47.037Z,43.45
2022-12-06T13:46:49.797Z,44.95
2022-12-06T13:47:52.528Z,51.85
2022-12-06T13:49:00.579Z,47.75
2022-12-06T13:50:15.179Z,42.25
2022-12-06T13:51:34.439Z,49.83
2022-12-06T13:52:42.882Z,45.47
2022-12-06T13:54:04.477Z,43.90
2022-12-06T13:55:25.820Z,49.55
2022-12-06T13:56:30.767Z,48.75
2022-12-06T13:57:33.642Z,51.10
2022-12-06T13:58:41.689Z,44.45
2022-12-06T13:59:44.386Z,55.17
2022-12-06T14:00:47.685Z,50.20
2022-12-06T14:01:52.289Z,44.47
2022-12-06T14:02:56.209Z,47.97
2022-12-06T14:04:01.426Z,52.83
2022-12-06T14:05:20.655Z,50.10
2022-12-06T14:06:42.479Z,49.25
2022-12-06T14:07:45.298Z,46.38
2022-12-06T14:08:59.496Z,49.00
2022-12-06T14:10:17.478Z,53.53
2022-12-06T14:11:24.225Z,62.22
2022-12-06T14:12:28.541Z,43.53
2022-12-06T14:13:31.271Z,46.20
2022-12-06T14:14:34.068Z,50.13
2022-12-06T14:15:40.190Z,44.80
2022-12-06T14:16:50.437Z,47.33
2022-12-06T14:18:03.088Z,52.80
2022-12-06T14:19:14.402Z,39.67
2022-12-06T14:20:23.401Z,46.30
2022-12-06T14:21:53.855Z,48.25
2022-12-06T14:22:56.645Z,43.10
2022-12-06T14:23:59.372Z,49.42
2022-12-06T14:25:23.455Z,45.13
2022-12-06T14:26:28.656Z,45.30
2022-12-06T14:27:34.195Z,48.90
2022-12-06T14:28:36.930Z,45.03
2022-12-06T14:29:40.659Z,40.47
2022-12-06T14:30:44.521Z,46.50
2022-12-06T14:31:50.029Z,50.35
2022-12-06T14:32:57.739Z,46.17
2022-12-06T14:34:00.571Z,42.15
2022-12-06T14:35:26.475Z,43.75
2022-12-06T14:36:31.652Z,47.17
2022-12-06T14:37:34.366Z,45.63
2022-12-06T14:38:37.110Z,39.95
2022-12-06T14:39:39.787Z,40.05
2022-12-06T14:41:02.656Z,44.10
2022-12-06T14:42:35.381Z,45.47